Time;durP1;ratioP1;P1;durP2;ratioP2;P2;SDS_P1;SDS_P2;PMS_P1;PMS_P2;Temp;Humidity;BMP_temperature;BMP_pressure;BME280_temperature;BME280_humidity;BME280_pressure;Samples;Min_cycle;Max_cycle;Signal;HPM_P1;HPM_P2
2023/09/29 00:00:34;;;;;;;23.02;8.60;;;15.40;89.60;;;;;;5073721;28;20028;-49
2023/09/29 00:03:02;;;;;;;16.02;7.00;;;15.40;89.70;;;;;;5056296;28;20036;-49
2023/09/29 00:05:30;;;;;;;20.85;7.90;;;15.40;89.70;;;;;;5073932;28;20028;-47
2023/09/29 00:07:56;;;;;;;19.63;7.50;;;15.40;89.70;;;;;;5073342;28;20458;-50
2023/09/29 00:10:25;;;;;;;19.10;7.65;;;15.30;89.70;;;;;;5073350;28;20104;-49
2023/09/29 00:13:00;;;;;;;20.33;8.85;;;15.40;89.70;;;;;;5073161;28;20116;-50
2023/09/29 00:15:26;;;;;;;16.08;6.50;;;15.40;89.80;;;;;;5073103;28;20107;-50
2023/09/29 00:17:51;;;;;;;18.63;7.35;;;15.40;89.80;;;;;;5072127;28;20102;-49
2023/09/29 00:20:24;;;;;;;20.23;8.88;;;15.30;89.70;;;;;;5073013;28;20036;-47
2023/09/29 00:22:57;;;;;;;14.48;6.65;;;15.40;89.70;;;;;;5073185;28;20322;-48
2023/09/29 00:25:25;;;;;;;21.83;8.52;;;15.40;89.80;;;;;;5072961;28;20028;-53
2023/09/29 00:27:52;;;;;;;19.15;6.68;;;15.40;89.70;;;;;;5072734;28;20049;-52
2023/09/29 00:30:18;;;;;;;15.50;6.53;;;15.40;89.70;;;;;;5073049;28;20365;-52
2023/09/29 00:32:47;;;;;;;17.45;6.68;;;15.40;89.70;;;;;;5073010;28;20040;-47
2023/09/29 00:35:33;;;;;;;;;;;15.40;89.70;;;;;;5073137;28;20032;-49
2023/09/29 00:38:01;;;;;;;26.13;8.82;;;15.40;89.70;;;;;;5072364;28;19908;-53
2023/09/29 00:40:28;;;;;;;21.17;7.53;;;15.40;89.60;;;;;;5072824;28;20040;-49
2023/09/29 00:42:54;;;;;;;16.65;6.60;;;15.40;89.70;;;;;;5072510;28;20441;-48
2023/09/29 00:45:26;;;;;;;14.77;6.18;;;15.40;89.60;;;;;;5071867;28;20350;-48
2023/09/29 00:48:07;;;;;;;18.88;7.30;;;15.40;89.60;;;;;;5071264;28;20017;-51
2023/09/29 00:50:35;;;;;;;18.70;7.35;;;15.40;89.70;;;;;;5054547;28;20119;-51
2023/09/29 00:53:07;;;;;;;19.83;8.07;;;15.40;89.60;;;;;;5072765;28;20028;-51
2023/09/29 00:55:36;;;;;;;20.75;7.47;;;15.40;89.60;;;;;;5037953;28;20048;-51
2023/09/29 00:58:04;;;;;;;17.03;6.73;;;15.40;89.70;;;;;;5054301;28;20021;-53
2023/09/29 01:00:37;;;;;;;16.80;6.90;;;15.40;89.70;;;;;;5038314;28;20040;-52
2023/09/29 01:03:15;;;;;;;12.52;6.65;;;15.40;89.70;;;;;;5071485;28;20094;-52
2023/09/29 01:06:00;;;;;;;18.00;6.32;;;15.40;89.80;;;;;;5072232;28;20028;-48
2023/09/29 01:08:29;;;;;;;17.17;7.13;;;15.40;89.70;;;;;;5071857;28;20044;-50
2023/09/29 01:10:56;;;;;;;15.77;7.00;;;15.40;89.80;;;;;;5072069;28;20028;-52
2023/09/29 01:13:24;;;;;;;18.70;7.55;;;15.40;89.90;;;;;;5054806;28;20969;-47
2023/09/29 01:15:57;;;;;;;18.02;6.95;;;15.40;89.90;;;;;;5071603;28;20024;-50
2023/09/29 01:18:23;;;;;;;18.98;7.72;;;15.40;90.00;;;;;;5054120;28;20040;-52
2023/09/29 01:20:53;;;;;;;19.30;8.25;;;15.50;90.00;;;;;;5072256;28;20078;-51
2023/09/29 01:23:23;;;;;;;18.75;6.95;;;15.40;89.90;;;;;;5071715;28;20465;-48
2023/09/29 01:25:50;;;;;;;15.05;6.78;;;15.40;90.00;;;;;;5071957;28;20044;-54
2023/09/29 01:28:17;;;;;;;15.15;7.85;;;15.40;90.00;;;;;;5071694;28;20016;-53
2023/09/29 01:30:45;;;;;;;16.20;6.60;;;15.40;89.90;;;;;;5071756;28;20025;-50
2023/09/29 01:33:12;;;;;;;19.63;8.10;;;15.40;89.80;;;;;;5071659;28;20120;-49
2023/09/29 01:35:43;;;;;;;15.20;6.50;;;15.40;89.70;;;;;;5071327;28;20028;-51
2023/09/29 01:38:12;;;;;;;17.33;7.78;;;15.40;89.70;;;;;;5071396;28;20517;-50
2023/09/29 01:40:40;;;;;;;18.77;7.85;;;15.50;89.70;;;;;;5091516;28;20047;-51
2023/09/29 01:43:07;;;;;;;14.32;7.00;;;15.40;89.60;;;;;;5070453;28;20355;-52
2023/09/29 01:45:32;;;;;;;19.98;7.70;;;15.50;89.60;;;;;;5071455;28;20021;-50
2023/09/29 01:48:04;;;;;;;15.10;7.10;;;15.50;89.60;;;;;;5071932;28;20436;-51
2023/09/29 01:50:33;;;;;;;17.92;8.57;;;15.50;89.50;;;;;;5067879;28;20458;-50
2023/09/29 01:53:04;;;;;;;21.20;8.10;;;15.50;89.50;;;;;;5052486;28;20108;-49
2023/09/29 01:55:31;;;;;;;18.83;8.05;;;15.60;89.50;;;;;;5052031;28;20040;-53
2023/09/29 01:57:57;;;;;;;14.45;7.63;;;15.60;89.50;;;;;;5050561;28;20366;-52
2023/09/29 02:00:25;;;;;;;16.42;7.35;;;15.60;89.50;;;;;;5054407;28;20025;-51
2023/09/29 02:03:06;;;;;;;14.38;6.65;;;15.60;89.60;;;;;;5072729;28;20036;-49
2023/09/29 02:05:34;;;;;;;17.33;7.70;;;15.60;89.60;;;;;;5074734;28;20334;-51
2023/09/29 02:08:04;;;;;;;15.73;8.18;;;15.60;89.50;;;;;;5053596;28;20048;-49
2023/09/29 02:10:33;;;;;;;18.75;8.00;;;15.60;89.60;;;;;;5056161;28;20025;-51
2023/09/29 02:13:00;;;;;;;19.25;9.35;;;15.70;89.60;;;;;;5055658;28;20024;-54
2023/09/29 02:15:29;;;;;;;15.55;8.60;;;15.60;89.60;;;;;;5055278;28;20354;-50
2023/09/29 02:17:58;;;;;;;12.53;7.50;;;15.70;89.70;;;;;;5055632;28;20029;-51
2023/09/29 02:20:35;;;;;;;18.92;9.20;;;15.70;89.70;;;;;;5055698;28;20264;-52
2023/09/29 02:23:04;;;;;;;17.38;8.77;;;15.70;89.70;;;;;;5056018;28;20036;-52
2023/09/29 02:25:32;;;;;;;15.70;7.65;;;15.70;89.80;;;;;;5055194;28;20108;-51
2023/09/29 02:28:00;;;;;;;21.67;8.57;;;15.70;89.70;;;;;;5055242;28;20036;-50
2023/09/29 02:30:27;;;;;;;15.25;8.45;;;15.70;89.80;;;;;;5037741;28;20107;-51
2023/09/29 02:32:55;;;;;;;22.52;9.40;;;15.70;89.90;;;;;;5069969;28;20029;-52
2023/09/29 02:35:24;;;;;;;17.63;8.90;;;15.70;89.80;;;;;;5075392;28;20028;-50
2023/09/29 02:37:53;;;;;;;21.13;8.90;;;15.70;89.90;;;;;;5070356;28;20454;-48
2023/09/29 02:40:20;;;;;;;21.45;9.35;;;15.70;90.00;;;;;;5055074;28;20021;-48
2023/09/29 02:42:49;;;;;;;23.42;9.60;;;15.70;89.90;;;;;;5062675;28;20726;-51
2023/09/29 02:45:16;;;;;;;19.00;9.63;;;15.70;89.90;;;;;;5055372;28;20020;-49
2023/09/29 02:47:47;;;;;;;17.98;9.95;;;15.70;90.00;;;;;;5054746;28;20041;-52
2023/09/29 02:50:15;;;;;;;18.08;9.20;;;15.70;90.10;;;;;;5054931;28;20466;-48
2023/09/29 02:52:41;;;;;;;16.52;10.25;;;15.70;90.10;;;;;;5054690;28;20017;-53
2023/09/29 02:55:12;;;;;;;18.90;9.30;;;15.70;90.20;;;;;;5055180;28;20029;-49
2023/09/29 02:57:41;;;;;;;20.52;10.50;;;15.70;90.30;;;;;;5053866;28;20478;-51
2023/09/29 03:00:23;;;;;;;18.42;9.40;;;15.70;90.40;;;;;;5054845;28;20036;-50
2023/09/29 03:02:53;;;;;;;17.15;11.40;;;15.70;90.40;;;;;;5055574;28;20047;-52
2023/09/29 03:05:21;;;;;;;16.58;12.07;;;15.70;90.50;;;;;;5053645;28;20083;-51
2023/09/29 03:07:49;;;;;;;18.73;11.07;;;15.70;90.50;;;;;;5036995;28;20039;-49
2023/09/29 03:10:19;;;;;;;24.13;13.00;;;15.70;90.60;;;;;;5070399;28;20434;-51
2023/09/29 03:12:49;;;;;;;18.48;12.80;;;15.70;90.70;;;;;;5053597;28;20100;-52
2023/09/29 03:15:16;;;;;;;21.38;15.20;;;15.80;90.70;;;;;;5054865;28;20032;-51
2023/09/29 03:17:44;;;;;;;19.77;14.82;;;15.80;90.80;;;;;;5054247;28;20083;-49
2023/09/29 03:20:11;;;;;;;24.63;15.10;;;15.80;91.00;;;;;;5020504;28;20112;-54
2023/09/29 03:22:43;;;;;;;22.60;15.82;;;15.80;91.10;;;;;;5054852;28;20113;-51
2023/09/29 03:25:16;;;;;;;19.90;14.70;;;15.80;91.10;;;;;;5053901;28;20473;-48
2023/09/29 03:27:43;;;;;;;22.25;14.30;;;15.80;91.20;;;;;;5053981;28;20086;-49
2023/09/29 03:30:10;;;;;;;19.05;14.60;;;15.80;91.20;;;;;;5053157;28;20079;-48
2023/09/29 03:32:37;;;;;;;22.05;16.67;;;15.80;91.20;;;;;;5053677;28;20439;-50
2023/09/29 03:35:05;;;;;;;24.65;15.20;;;15.90;91.30;;;;;;5054298;28;20442;-52
2023/09/29 03:37:36;;;;;;;21.77;16.13;;;15.80;91.30;;;;;;5054001;28;20052;-54
2023/09/29 03:40:09;;;;;;;20.52;15.35;;;15.90;91.30;;;;;;5053996;28;20361;-51
2023/09/29 03:42:55;;;;;;;25.60;19.42;;;15.90;91.30;;;;;;5067134;28;20052;-52
2023/09/29 03:45:25;;;;;;;21.73;17.23;;;15.90;91.30;;;;;;5093892;28;20028;-51
2023/09/29 03:47:52;;;;;;;;;;;15.90;91.30;;;;;;5094020;28;20089;-50
2023/09/29 03:50:19;;;;;;;19.75;16.38;;;15.90;91.30;;;;;;5076078;28;19907;-48
2023/09/29 03:52:46;;;;;;;24.50;18.30;;;15.90;91.40;;;;;;5094004;28;20027;-51
2023/09/29 03:55:14;;;;;;;21.88;16.83;;;15.90;91.40;;;;;;5081512;28;20048;-53
2023/09/29 03:57:41;;;;;;;19.02;16.95;;;15.90;91.40;;;;;;5073773;28;20355;-50
2023/09/29 04:00:12;;;;;;;24.15;19.05;;;15.90;91.40;;;;;;5073895;28;20133;-51
2023/09/29 04:02:44;;;;;;;26.00;20.10;;;15.90;91.50;;;;;;5056785;28;20090;-48
2023/09/29 04:05:17;;;;;;;24.90;18.95;;;15.90;91.50;;;;;;5073348;28;20035;-48
2023/09/29 04:07:45;;;;;;;27.02;19.20;;;15.90;91.50;;;;;;5073637;28;20078;-54
2023/09/29 04:10:15;;;;;;;24.65;19.33;;;15.90;91.60;;;;;;5039123;28;20098;-48
2023/09/29 04:12:43;;;;;;;;;;;15.90;91.60;;;;;;5073741;28;20028;-53
2023/09/29 04:15:10;;;;;;;26.38;21.20;;;15.90;91.70;;;;;;5072424;28;19912;-53
2023/09/29 04:17:47;;;;;;;23.08;20.38;;;15.90;91.70;;;;;;5073602;28;20032;-51
2023/09/29 04:20:13;;;;;;;23.20;19.38;;;15.90;91.80;;;;;;5055529;28;20418;-53
2023/09/29 04:22:41;;;;;;;28.65;19.60;;;15.90;91.80;;;;;;5073247;28;20515;-51
2023/09/29 04:25:09;;;;;;;23.33;18.55;;;15.90;91.80;;;;;;5093223;28;20437;-53
2023/09/29 04:27:38;;;;;;;25.77;19.20;;;15.80;91.80;;;;;;5075425;28;20421;-47
2023/09/29 04:30:08;;;;;;;22.80;18.65;;;15.80;91.90;;;;;;5093636;28;20356;-51
2023/09/29 04:32:35;;;;;;;23.00;20.52;;;15.90;91.90;;;;;;5086373;28;20090;-49
2023/09/29 04:35:03;;;;;;;29.63;22.67;;;15.80;92.00;;;;;;5072968;28;20032;-49
2023/09/29 04:37:30;;;;;;;25.52;20.63;;;15.80;92.10;;;;;;5071429;28;20048;-47
2023/09/29 04:39:58;;;;;;;26.85;19.73;;;15.80;92.20;;;;;;5073098;28;20088;-51
2023/09/29 04:42:24;;;;;;;26.52;20.63;;;15.80;92.30;;;;;;5072537;28;20078;-51
2023/09/29 04:44:51;;;;;;;24.27;19.42;;;15.80;92.30;;;;;;5073108;28;20029;-53
2023/09/29 04:47:18;;;;;;;23.63;21.05;;;15.70;92.40;;;;;;5055011;28;20032;-50
2023/09/29 04:49:49;;;;;;;27.48;21.67;;;15.70;92.40;;;;;;5055625;28;20028;-48
2023/09/29 04:52:19;;;;;;;24.67;21.33;;;15.70;92.50;;;;;;5072692;28;20020;-51
2023/09/29 04:54:48;;;;;;;25.17;21.63;;;15.70;92.50;;;;;;5055416;28;20040;-51
2023/09/29 04:57:15;;;;;;;28.02;23.80;;;15.70;92.60;;;;;;5073150;28;20410;-51
2023/09/29 04:59:43;;;;;;;34.55;24.45;;;15.70;92.60;;;;;;5072600;28;20039;-50
2023/09/29 05:02:13;;;;;;;38.75;27.05;;;15.70;92.60;;;;;;5073077;28;20028;-49
2023/09/29 05:04:39;;;;;;;32.42;26.08;;;15.70;92.70;;;;;;5072721;28;20368;-49
2023/09/29 05:07:07;;;;;;;26.00;23.05;;;15.70;92.80;;;;;;5054865;28;20029;-49
2023/09/29 05:09:35;;;;;;;27.17;23.58;;;15.70;92.90;;;;;;5071960;28;20025;-48
2023/09/29 05:12:02;;;;;;;31.23;26.05;;;15.70;92.90;;;;;;5072292;28;20024;-49
2023/09/29 05:14:29;;;;;;;31.63;25.70;;;15.70;92.90;;;;;;5072860;28;20130;-49
2023/09/29 05:16:56;;;;;;;30.92;25.02;;;15.70;93.00;;;;;;5072382;28;20481;-52
2023/09/29 05:19:25;;;;;;;35.97;25.55;;;15.70;93.10;;;;;;5055126;28;20029;-47
2023/09/29 05:21:58;;;;;;;34.42;25.33;;;15.70;93.10;;;;;;5072079;28;20434;-47
2023/09/29 05:24:29;;;;;;;27.95;25.15;;;15.70;93.10;;;;;;5072298;28;20047;-51
2023/09/29 05:26:55;;;;;;;30.27;24.83;;;15.70;93.10;;;;;;5071958;28;20396;-47
2023/09/29 05:29:22;;;;;;;32.95;27.58;;;15.70;93.10;;;;;;5071923;28;20047;-48
2023/09/29 05:31:49;;;;;;;32.83;26.08;;;15.70;93.10;;;;;;5072176;28;20103;-49
2023/09/29 05:34:17;;;;;;;36.22;27.17;;;15.80;93.20;;;;;;5073151;28;20032;-48
2023/09/29 05:36:45;;;;;;;27.50;24.55;;;15.80;93.20;;;;;;5058399;28;20044;-47
2023/09/29 05:39:12;;;;;;;29.83;26.73;;;15.80;93.20;;;;;;5076178;28;20154;-50
2023/09/29 05:41:39;;;;;;;36.38;26.30;;;15.80;93.20;;;;;;5076328;28;20056;-47
2023/09/29 05:44:08;;;;;;;35.72;25.25;;;15.80;93.20;;;;;;5067184;28;20111;-50
2023/09/29 05:46:34;;;;;;;35.85;27.42;;;15.80;93.20;;;;;;5096331;28;20028;-51
2023/09/29 05:49:01;;;;;;;29.85;24.60;;;15.80;93.20;;;;;;5078770;28;20090;-49
2023/09/29 05:51:29;;;;;;;39.60;26.17;;;15.90;93.30;;;;;;5076562;28;20031;-53
2023/09/29 05:53:56;;;;;;;30.98;25.83;;;15.80;93.30;;;;;;5076722;28;20067;-48
2023/09/29 05:56:23;;;;;;;31.48;26.52;;;15.80;93.30;;;;;;5058060;28;20040;-54
2023/09/29 05:58:55;;;;;;;34.67;25.60;;;15.90;93.40;;;;;;5070846;28;20031;-52
2023/09/29 06:01:21;;;;;;;33.53;26.40;;;15.90;93.30;;;;;;5096401;28;20020;-51
2023/09/29 06:03:47;;;;;;;30.40;26.25;;;15.90;93.30;;;;;;5058276;28;20097;-51
2023/09/29 06:06:16;;;;;;;31.50;24.63;;;15.90;93.30;;;;;;5076013;28;20504;-50
2023/09/29 06:08:45;;;;;;;27.30;24.35;;;15.90;93.30;;;;;;5059081;28;20037;-51
2023/09/29 06:11:15;;;;;;;36.03;26.85;;;15.90;93.30;;;;;;5058636;28;20040;-49
2023/09/29 06:13:43;;;;;;;29.20;24.52;;;16.00;93.20;;;;;;5075889;28;20110;-48
2023/09/29 06:16:11;;;;;;;29.30;25.42;;;16.00;93.20;;;;;;5076091;28;20044;-48
2023/09/29 06:18:40;;;;;;;35.38;26.50;;;16.00;93.20;;;;;;5075298;28;20021;-51
2023/09/29 06:21:07;;;;;;;29.70;24.63;;;16.10;93.10;;;;;;5075646;28;20394;-53
2023/09/29 06:23:35;;;;;;;26.02;22.58;;;16.10;93.00;;;;;;5074788;28;20319;-50
2023/09/29 06:26:02;;;;;;;33.03;24.02;;;16.10;93.00;;;;;;5057384;28;20033;-53
2023/09/29 06:28:33;;;;;;;28.95;23.75;;;16.10;92.90;;;;;;5057241;28;20028;-47
2023/09/29 06:31:01;;;;;;;27.40;23.77;;;16.10;92.90;;;;;;5073508;28;20464;-51
2023/09/29 06:33:28;;;;;;;29.77;22.02;;;16.10;92.90;;;;;;5075379;28;20020;-49
2023/09/29 06:35:56;;;;;;;29.73;24.67;;;16.20;93.00;;;;;;5075196;28;20028;-53
2023/09/29 06:38:24;;;;;;;25.75;22.95;;;16.20;92.80;;;;;;5075322;28;20537;-52
2023/09/29 06:40:51;;;;;;;28.10;22.30;;;16.20;92.70;;;;;;5074084;28;20044;-48
2023/09/29 06:43:19;;;;;;;27.83;22.77;;;16.20;92.80;;;;;;5075151;28;20052;-54
2023/09/29 06:45:47;;;;;;;25.70;20.92;;;16.20;92.70;;;;;;5074621;28;20345;-53
2023/09/29 06:48:15;;;;;;;28.00;21.70;;;16.30;92.70;;;;;;5074607;28;20036;-50
2023/09/29 06:50:41;;;;;;;25.08;21.55;;;16.30;92.60;;;;;;5075257;28;20038;-51
2023/09/29 06:53:13;;;;;;;27.23;21.10;;;16.40;92.50;;;;;;5075162;28;20020;-49
2023/09/29 06:55:41;;;;;;;29.52;21.73;;;16.40;92.50;;;;;;5064090;28;20039;-50
2023/09/29 06:58:09;;;;;;;30.02;21.38;;;16.40;92.30;;;;;;5074665;28;20367;-49
2023/09/29 07:00:36;;;;;;;22.77;18.90;;;16.40;92.20;;;;;;5074999;28;20037;-51
2023/09/29 07:03:04;;;;;;;27.75;20.23;;;16.50;92.10;;;;;;5074609;28;20036;-54
2023/09/29 07:05:31;;;;;;;23.10;19.52;;;16.50;92.00;;;;;;5074774;28;20036;-51
2023/09/29 07:07:57;;;;;;;27.20;19.58;;;16.60;91.80;;;;;;5056998;28;20544;-51
2023/09/29 07:10:24;;;;;;;23.90;19.60;;;16.60;91.60;;;;;;5074637;28;20043;-51
2023/09/29 07:12:51;;;;;;;22.77;19.52;;;16.70;91.50;;;;;;5074582;28;20032;-51
2023/09/29 07:15:22;;;;;;;23.48;20.02;;;16.70;91.50;;;;;;5074550;28;20422;-53
2023/09/29 07:17:49;;;;;;;26.45;18.55;;;16.80;91.40;;;;;;5073083;28;20029;-48
2023/09/29 07:20:18;;;;;;;21.65;18.77;;;16.80;91.40;;;;;;5074167;28;20381;-51
2023/09/29 07:22:44;;;;;;;23.08;17.48;;;16.80;91.40;;;;;;5074275;28;20029;-48
2023/09/29 07:25:14;;;;;;;21.73;17.33;;;16.80;91.30;;;;;;5074863;28;20033;-47
2023/09/29 07:27:39;;;;;;;20.35;17.17;;;16.90;91.30;;;;;;5073926;28;20028;-45
2023/09/29 07:30:07;;;;;;;23.38;17.83;;;16.90;91.40;;;;;;5056978;28;20082;-45
2023/09/29 07:32:33;;;;;;;22.85;18.63;;;16.90;91.50;;;;;;5074049;28;20027;-50
2023/09/29 07:35:04;;;;;;;21.77;17.25;;;16.90;91.70;;;;;;5074062;28;20433;-44
2023/09/29 07:37:29;;;;;;;28.10;18.48;;;16.90;91.90;;;;;;5056178;28;20029;-48
2023/09/29 07:39:58;;;;;;;25.85;18.20;;;16.90;92.10;;;;;;5074172;28;20040;-47
2023/09/29 07:42:23;;;;;;;23.90;18.38;;;16.90;92.10;;;;;;5073907;28;20099;-44
2023/09/29 07:44:51;;;;;;;21.10;18.25;;;16.90;92.20;;;;;;5073909;28;20581;-46
2023/09/29 07:47:17;;;;;;;23.25;17.70;;;16.80;92.40;;;;;;5074428;28;20028;-48
2023/09/29 07:49:43;;;;;;;20.42;16.83;;;16.90;92.40;;;;;;5056221;28;20028;-48
2023/09/29 07:52:12;;;;;;;23.45;18.35;;;16.90;92.30;;;;;;5074371;28;20081;-44
2023/09/29 07:54:39;;;;;;;25.08;17.90;;;16.90;92.30;;;;;;5073714;28;20032;-43
2023/09/29 07:57:05;;;;;;;24.13;18.85;;;16.90;92.30;;;;;;5073765;28;20063;-49
2023/09/29 07:59:34;;;;;;;23.00;16.73;;;16.90;92.40;;;;;;5074056;28;20029;-46
2023/09/29 08:02:00;;;;;;;21.98;16.80;;;17.00;92.40;;;;;;5074082;28;20418;-44
2023/09/29 08:04:27;;;;;;;18.67;16.45;;;17.10;92.30;;;;;;5074036;28;20050;-47
2023/09/29 08:06:56;;;;;;;21.77;16.13;;;17.10;92.20;;;;;;5055904;28;20112;-45
2023/09/29 08:09:23;;;;;;;20.00;14.75;;;17.20;91.90;;;;;;5073477;28;20064;-45
2023/09/29 08:11:50;;;;;;;24.08;14.90;;;17.20;91.70;;;;;;5073772;28;20078;-48
2023/09/29 08:14:16;;;;;;;19.30;14.35;;;17.40;91.60;;;;;;5073896;28;20463;-50
2023/09/29 08:16:43;;;;;;;18.67;14.75;;;17.50;91.20;;;;;;5072501;28;20041;-45
2023/09/29 08:19:11;;;;;;;21.67;14.35;;;17.60;90.80;;;;;;5073295;28;20024;-47
2023/09/29 08:21:39;;;;;;;16.38;11.77;;;17.70;90.20;;;;;;5073477;28;20028;-50
2023/09/29 08:24:09;;;;;;;17.17;12.48;;;17.70;89.50;;;;;;5073334;28;20432;-51
2023/09/29 08:26:35;;;;;;;17.35;12.88;;;17.80;89.70;;;;;;5073001;28;20524;-50
2023/09/29 08:29:03;;;;;;;19.13;13.23;;;17.90;89.30;;;;;;5073268;28;20028;-50
2023/09/29 08:31:30;;;;;;;16.13;11.88;;;17.90;89.20;;;;;;5073778;28;20342;-49
2023/09/29 08:33:57;;;;;;;20.70;13.18;;;17.90;89.00;;;;;;5073037;28;20028;-46
2023/09/29 08:36:23;;;;;;;16.65;12.73;;;17.90;88.90;;;;;;5072881;28;20032;-47
2023/09/29 08:38:50;;;;;;;14.43;11.85;;;17.90;88.70;;;;;;5073600;28;20043;-48
2023/09/29 08:41:19;;;;;;;13.65;10.63;;;17.90;88.50;;;;;;5072791;28;20055;-53
2023/09/29 08:43:50;;;;;;;16.77;11.47;;;17.90;88.40;;;;;;5072396;28;20049;-53
2023/09/29 08:46:19;;;;;;;16.25;10.80;;;17.90;88.60;;;;;;5056404;28;20039;-51
2023/09/29 08:48:46;;;;;;;17.27;11.40;;;17.90;88.50;;;;;;5055191;28;20036;-50
2023/09/29 08:51:15;;;;;;;14.45;11.38;;;17.90;88.80;;;;;;5073066;28;20024;-52
2023/09/29 08:53:43;;;;;;;19.13;13.05;;;18.00;88.60;;;;;;5055717;28;20028;-50
2023/09/29 08:56:14;;;;;;;12.38;10.73;;;18.10;88.60;;;;;;5072980;28;20108;-52
2023/09/29 08:58:43;;;;;;;14.38;9.98;;;18.30;88.20;;;;;;5072857;28;20035;-55
2023/09/29 09:01:09;;;;;;;15.02;10.70;;;18.50;87.80;;;;;;5072525;28;20462;-53
2023/09/29 09:03:35;;;;;;;12.52;9.77;;;18.50;86.80;;;;;;5072512;28;20052;-51
2023/09/29 09:06:32;;;;;;;11.50;9.77;;;18.70;86.60;;;;;;5071675;28;20048;-54
2023/09/29 09:08:57;;;;;;;13.40;9.85;;;18.90;85.90;;;;;;5054160;28;20059;-54
2023/09/29 09:11:29;;;;;;;10.52;8.25;;;19.00;85.70;;;;;;5055123;28;20021;-54
2023/09/29 09:14:10;;;;;;;11.23;8.38;;;19.20;85.00;;;;;;5073234;28;20110;-51
2023/09/29 09:16:40;;;;;;;32.78;9.52;;;19.40;84.80;;;;;;5072706;28;20465;-49
2023/09/29 09:19:15;;;;;;;13.60;8.50;;;19.40;84.70;;;;;;5072327;28;20068;-54
2023/09/29 09:21:43;;;;;;;13.23;8.38;;;19.40;84.00;;;;;;5072468;28;20450;-55
2023/09/29 09:24:29;;;;;;;12.93;8.40;;;19.50;84.30;;;;;;5038477;28;20032;-50
2023/09/29 09:27:03;;;;;;;12.93;8.07;;;19.70;84.00;;;;;;5072752;28;20060;-49
2023/09/29 09:29:30;;;;;;;12.07;7.88;;;19.60;83.60;;;;;;5071485;28;20025;-48
2023/09/29 09:32:05;;;;;;;12.70;7.95;;;19.60;83.90;;;;;;5054696;28;20617;-50
2023/09/29 09:34:39;;;;;;;15.35;8.13;;;19.60;83.80;;;;;;5072464;28;20353;-53
2023/09/29 09:37:11;;;;;;;12.68;7.00;;;19.60;84.40;;;;;;5071719;28;20043;-50
2023/09/29 09:39:47;;;;;;;9.55;6.90;;;19.60;84.50;;;;;;5072999;28;20040;-52
2023/09/29 09:42:15;;;;;;;11.80;8.18;;;19.50;84.30;;;;;;5054252;28;20045;-54
2023/09/29 09:44:42;;;;;;;12.57;7.70;;;19.50;84.40;;;;;;5072476;28;20024;-52
2023/09/29 09:47:31;;;;;;;11.05;7.43;;;19.50;84.70;;;;;;5073068;28;20908;-52
2023/09/29 09:50:06;;;;;;;12.98;7.45;;;19.60;85.30;;;;;;5057201;28;20434;-52
2023/09/29 09:52:34;;;;;;;11.48;7.63;;;19.70;84.90;;;;;;5038490;28;20040;-51
2023/09/29 09:55:15;;;;;;;10.95;8.07;;;19.90;84.50;;;;;;5071733;28;20028;-49
2023/09/29 09:57:45;;;;;;;11.15;7.03;;;20.00;84.40;;;;;;5072814;28;20107;-49
2023/09/29 10:00:13;;;;;;;;;;;20.20;84.60;;;;;;5092044;28;20055;-52
2023/09/29 10:02:45;;;;;;;12.07;6.90;;;20.20;83.90;;;;;;5077400;28;19957;-51
2023/09/29 10:05:30;;;;;;;12.75;7.78;;;20.30;83.50;;;;;;5037618;28;20045;-52
2023/09/29 10:08:01;;;;;;;13.50;6.32;;;20.40;83.60;;;;;;5040747;28;20020;-52
2023/09/29 10:10:46;;;;;;;10.60;6.60;;;20.50;83.60;;;;;;5072452;28;20408;-49
2023/09/29 10:13:15;;;;;;;9.60;5.55;;;20.70;83.90;;;;;;5057703;28;20060;-54
2023/09/29 10:15:42;;;;;;;10.65;6.28;;;20.90;83.40;;;;;;5072108;28;20574;-49
2023/09/29 10:18:30;;;;;;;7.10;4.78;;;21.00;82.90;;;;;;5061713;28;20124;-49
2023/09/29 10:21:19;;;;;;;9.27;5.97;;;21.40;82.70;;;;;;5094052;28;20073;-51
2023/09/29 10:23:51;;;;;;;8.60;5.70;;;21.40;81.60;;;;;;5096022;28;20030;-53
2023/09/29 10:26:20;;;;;;;9.68;4.85;;;21.40;81.70;;;;;;5091300;28;20051;-53
2023/09/29 10:29:00;;;;;;;7.75;4.45;;;21.50;82.10;;;;;;5057698;28;20513;-51
2023/09/29 10:31:28;;;;;;;6.82;4.75;;;21.50;81.10;;;;;;5075592;28;20021;-51
2023/09/29 10:33:56;;;;;;;7.47;4.47;;;21.80;81.80;;;;;;5075313;28;20029;-51
2023/09/29 10:36:28;;;;;;;8.25;5.13;;;21.90;80.60;;;;;;5057787;28;20433;-51
2023/09/29 10:38:58;;;;;;;10.55;4.50;;;22.00;80.30;;;;;;5075164;28;20095;-51
2023/09/29 10:41:37;;;;;;;;;;;21.90;79.90;;;;;;5075737;28;20025;-53
2023/09/29 10:44:07;;;;;;;8.02;4.22;;;21.90;79.70;;;;;;5075193;28;19970;-54
2023/09/29 10:46:32;;;;;;;;;;;21.90;79.90;;;;;;5075125;28;20024;-49
2023/09/29 10:49:00;;;;;;;11.13;5.13;;;21.90;79.20;;;;;;5057337;28;19923;-49
2023/09/29 10:51:34;;;;;;;6.43;4.40;;;21.90;79.80;;;;;;5075422;28;20602;-51
2023/09/29 10:54:09;;;;;;;8.70;4.82;;;21.90;79.70;;;;;;5074850;28;20082;-52
2023/09/29 10:56:39;;;;;;;6.22;4.25;;;21.90;80.10;;;;;;5074767;28;20028;-48
2023/09/29 10:59:07;;;;;;;7.25;4.82;;;22.10;78.80;;;;;;5075373;28;20104;-48
2023/09/29 11:01:34;;;;;;;6.13;3.75;;;22.20;78.60;;;;;;5041089;28;20032;-55
2023/09/29 11:04:07;;;;;;;7.90;4.43;;;22.30;78.90;;;;;;5057396;28;20137;-49
2023/09/29 11:06:51;;;;;;;6.97;4.13;;;22.30;78.90;;;;;;5057654;28;20036;-52
2023/09/29 11:09:36;;;;;;;5.97;3.60;;;22.40;80.00;;;;;;5060179;28;20055;-52
2023/09/29 11:12:18;;;;;;;7.05;4.50;;;22.40;78.60;;;;;;5091557;28;20089;-50
2023/09/29 11:14:46;;;;;;;7.55;4.25;;;22.40;78.40;;;;;;5094845;28;20067;-50
2023/09/29 11:17:11;;;;;;;10.38;5.55;;;22.40;78.80;;;;;;5094715;28;20032;-54
2023/09/29 11:19:41;;;;;;;6.13;4.38;;;22.40;78.60;;;;;;5083817;28;20028;-52
2023/09/29 11:22:18;;;;;;;5.75;3.95;;;22.40;79.10;;;;;;5074407;28;20043;-52
2023/09/29 11:24:50;;;;;;;8.77;4.35;;;22.60;79.60;;;;;;5040669;28;20028;-54
2023/09/29 11:27:20;;;;;;;10.82;4.90;;;22.70;78.30;;;;;;5057963;28;20032;-53
2023/09/29 11:29:48;;;;;;;7.97;5.13;;;22.70;78.00;;;;;;5074609;28;20094;-50
2023/09/29 11:32:19;;;;;;;7.72;4.32;;;22.70;78.00;;;;;;5055920;28;20090;-51
2023/09/29 11:34:58;;;;;;;8.80;4.43;;;22.60;77.80;;;;;;5075247;28;20032;-53
2023/09/29 11:37:25;;;;;;;9.05;4.22;;;22.60;78.50;;;;;;5074257;28;20043;-50
2023/09/29 11:39:53;;;;;;;7.20;4.50;;;22.60;78.10;;;;;;5074962;28;20425;-52
2023/09/29 11:42:23;;;;;;;6.00;4.03;;;22.40;78.30;;;;;;5073990;28;20373;-52
2023/09/29 11:44:50;;;;;;;9.30;4.85;;;22.40;79.10;;;;;;5074009;28;20032;-51
2023/09/29 11:47:20;;;;;;;10.05;4.55;;;22.30;79.40;;;;;;5056923;28;20049;-48
2023/09/29 11:49:46;;;;;;;9.93;4.22;;;22.30;79.50;;;;;;5074046;28;20024;-52
2023/09/29 11:52:12;;;;;;;8.15;4.55;;;22.40;79.70;;;;;;5074014;28;20024;-52
2023/09/29 11:54:42;;;;;;;8.95;3.92;;;22.40;80.00;;;;;;5074438;28;20067;-51
2023/09/29 11:57:10;;;;;;;7.40;3.35;;;22.60;79.80;;;;;;5073510;28;20028;-55
2023/09/29 11:59:38;;;;;;;8.98;3.70;;;22.50;78.60;;;;;;5074094;28;20032;-53
2023/09/29 12:02:06;;;;;;;8.27;3.85;;;22.40;78.60;;;;;;5073654;28;20078;-53
2023/09/29 12:04:34;;;;;;;7.15;4.00;;;22.30;79.10;;;;;;5073596;28;20029;-51
2023/09/29 12:07:04;;;;;;;6.32;3.45;;;22.20;78.90;;;;;;5074143;28;20052;-51
2023/09/29 12:09:32;;;;;;;7.60;3.30;;;22.10;79.40;;;;;;5056406;28;20115;-54
2023/09/29 12:12:00;;;;;;;7.60;3.70;;;22.00;80.10;;;;;;5055930;28;20028;-52
2023/09/29 12:14:28;;;;;;;10.10;4.97;;;22.00;80.60;;;;;;5074056;28;20461;-52
2023/09/29 12:16:53;;;;;;;7.72;4.15;;;22.00;80.80;;;;;;5073363;28;20033;-55
2023/09/29 12:19:20;;;;;;;6.88;3.50;;;22.00;80.50;;;;;;5055786;28;20082;-55
2023/09/29 12:21:48;;;;;;;6.22;3.15;;;22.00;80.70;;;;;;5056018;28;20067;-54
2023/09/29 12:24:16;;;;;;;10.38;3.30;;;21.80;80.70;;;;;;5073092;28;20035;-53
2023/09/29 12:26:47;;;;;;;7.30;3.10;;;21.70;81.20;;;;;;5073261;28;20024;-53
2023/09/29 12:29:14;;;;;;;9.15;3.60;;;21.70;81.30;;;;;;5073751;28;20044;-50
2023/09/29 12:31:41;;;;;;;8.60;3.90;;;21.60;81.40;;;;;;5073118;28;20039;-53
2023/09/29 12:34:11;;;;;;;6.70;3.72;;;21.50;81.60;;;;;;5073236;28;20142;-50
2023/09/29 12:36:39;;;;;;;5.90;3.10;;;21.40;82.00;;;;;;5055833;28;20041;-53
2023/09/29 12:39:07;;;;;;;7.82;3.08;;;21.40;82.70;;;;;;5073000;28;20788;-50
2023/09/29 12:41:37;;;;;;;8.60;3.67;;;21.40;82.90;;;;;;5072890;28;20040;-52
2023/09/29 12:44:07;;;;;;;6.03;4.13;;;21.30;83.30;;;;;;5072109;28;20513;-54
2023/09/29 12:46:37;;;;;;;8.90;4.07;;;21.30;83.50;;;;;;5073125;28;20495;-53